sensor_id;sensor_type;location;lat;lon;timestamp;P1;durP1;ratioP1;P2;durP2;ratioP2
4460;SDS011;2243;48.812;9.232;2023-07-24T00:02:01;12.37;;;7.20;;
4460;SDS011;2243;48.812;9.232;2023-07-24T00:04:33;11.93;;;6.97;;
4460;SDS011;2243;48.812;9.232;2023-07-24T00:07:05;12.13;;;7.70;;
4460;SDS011;2243;48.812;9.232;2023-07-24T00:09:39;10.73;;;6.60;;
4460;SDS011;2243;48.812;9.232;2023-07-24T00:12:10;13.17;;;7.07;;
4460;SDS011;2243;48.812;9.232;2023-07-24T00:14:41;13.33;;;8.13;;
4460;SDS011;2243;48.812;9.232;2023-07-24T00:17:12;10.40;;;7.30;;
4460;SDS011;2243;48.812;9.232;2023-07-24T00:19:43;11.37;;;7.67;;
4460;SDS011;2243;48.812;9.232;2023-07-24T00:22:14;12.30;;;8.07;;
4460;SDS011;2243;48.812;9.232;2023-07-24T00:24:45;12.67;;;7.63;;
4460;SDS011;2243;48.812;9.232;2023-07-24T00:27:16;12.90;;;7.80;;
4460;SDS011;2243;48.812;9.232;2023-07-24T00:29:47;11.20;;;8.20;;
4460;SDS011;2243;48.812;9.232;2023-07-24T00:32:17;18.83;;;7.77;;
4460;SDS011;2243;48.812;9.232;2023-07-24T00:34:48;12.73;;;7.77;;
4460;SDS011;2243;48.812;9.232;2023-07-24T00:37:19;13.73;;;8.40;;
4460;SDS011;2243;48.812;9.232;2023-07-24T00:39:50;11.67;;;7.60;;
4460;SDS011;2243;48.812;9.232;2023-07-24T00:42:21;9.20;;;6.83;;
4460;SDS011;2243;48.812;9.232;2023-07-24T00:44:52;9.70;;;7.07;;
4460;SDS011;2243;48.812;9.232;2023-07-24T00:47:25;9.03;;;7.03;;
4460;SDS011;2243;48.812;9.232;2023-07-24T00:49:57;9.77;;;7.30;;
4460;SDS011;2243;48.812;9.232;2023-07-24T00:52:28;8.80;;;7.13;;
4460;SDS011;2243;48.812;9.232;2023-07-24T00:54:59;14.60;;;7.90;;
4460;SDS011;2243;48.812;9.232;2023-07-24T00:57:31;9.93;;;6.70;;
4460;SDS011;2243;48.812;9.232;2023-07-24T01:00:03;10.10;;;6.57;;
4460;SDS011;2243;48.812;9.232;2023-07-24T01:02:34;13.17;;;7.40;;
4460;SDS011;2243;48.812;9.232;2023-07-24T01:05:06;11.00;;;7.17;;
4460;SDS011;2243;48.812;9.232;2023-07-24T01:07:39;11.53;;;7.37;;
4460;SDS011;2243;48.812;9.232;2023-07-24T01:10:10;11.90;;;7.80;;
4460;SDS011;2243;48.812;9.232;2023-07-24T01:12:44;14.03;;;7.70;;
4460;SDS011;2243;48.812;9.232;2023-07-24T01:15:24;10.67;;;7.83;;
4460;SDS011;2243;48.812;9.232;2023-07-24T01:18:08;11.10;;;7.67;;
4460;SDS011;2243;48.812;9.232;2023-07-24T01:20:43;10.47;;;7.53;;
4460;SDS011;2243;48.812;9.232;2023-07-24T01:26:40;10.47;;;7.17;;
4460;SDS011;2243;48.812;9.232;2023-07-24T01:29:11;9.53;;;6.70;;
4460;SDS011;2243;48.812;9.232;2023-07-24T01:31:42;10.30;;;7.27;;
4460;SDS011;2243;48.812;9.232;2023-07-24T01:34:13;11.30;;;7.57;;
4460;SDS011;2243;48.812;9.232;2023-07-24T01:36:44;10.83;;;8.00;;
4460;SDS011;2243;48.812;9.232;2023-07-24T01:39:15;11.93;;;8.00;;
4460;SDS011;2243;48.812;9.232;2023-07-24T01:41:49;8.30;;;6.73;;
4460;SDS011;2243;48.812;9.232;2023-07-24T01:44:20;11.97;;;7.87;;
4460;SDS011;2243;48.812;9.232;2023-07-24T01:46:53;11.70;;;8.10;;
4460;SDS011;2243;48.812;9.232;2023-07-24T01:49:24;10.63;;;7.47;;
4460;SDS011;2243;48.812;9.232;2023-07-24T01:51:54;10.13;;;7.00;;
4460;SDS011;2243;48.812;9.232;2023-07-24T01:54:26;12.53;;;8.10;;
4460;SDS011;2243;48.812;9.232;2023-07-24T01:56:57;11.50;;;8.33;;
4460;SDS011;2243;48.812;9.232;2023-07-24T01:59:28;11.50;;;7.60;;
4460;SDS011;2243;48.812;9.232;2023-07-24T02:01:59;10.60;;;7.97;;
4460;SDS011;2243;48.812;9.232;2023-07-24T02:04:30;12.17;;;8.27;;
4460;SDS011;2243;48.812;9.232;2023-07-24T02:07:01;14.03;;;7.40;;
4460;SDS011;2243;48.812;9.232;2023-07-24T02:09:32;13.50;;;7.53;;
4460;SDS011;2243;48.812;9.232;2023-07-24T02:12:03;13.90;;;8.03;;
4460;SDS011;2243;48.812;9.232;2023-07-24T02:14:35;10.60;;;7.60;;
4460;SDS011;2243;48.812;9.232;2023-07-24T02:17:06;13.30;;;7.67;;
4460;SDS011;2243;48.812;9.232;2023-07-24T02:19:37;10.07;;;7.10;;
4460;SDS011;2243;48.812;9.232;2023-07-24T02:22:08;8.80;;;6.50;;
4460;SDS011;2243;48.812;9.232;2023-07-24T02:24:39;9.43;;;7.67;;
4460;SDS011;2243;48.812;9.232;2023-07-24T02:27:23;10.10;;;6.70;;
4460;SDS011;2243;48.812;9.232;2023-07-24T02:30:01;8.63;;;6.83;;
4460;SDS011;2243;48.812;9.232;2023-07-24T02:32:33;10.93;;;7.57;;
4460;SDS011;2243;48.812;9.232;2023-07-24T02:35:04;11.43;;;7.00;;
4460;SDS011;2243;48.812;9.232;2023-07-24T02:37:36;11.73;;;8.40;;
4460;SDS011;2243;48.812;9.232;2023-07-24T02:40:07;8.30;;;6.67;;
4460;SDS011;2243;48.812;9.232;2023-07-24T02:42:39;10.20;;;7.00;;
4460;SDS011;2243;48.812;9.232;2023-07-24T02:45:09;8.33;;;6.57;;
4460;SDS011;2243;48.812;9.232;2023-07-24T02:47:41;12.13;;;7.47;;
4460;SDS011;2243;48.812;9.232;2023-07-24T02:50:13;9.33;;;7.10;;
4460;SDS011;2243;48.812;9.232;2023-07-24T02:52:44;13.27;;;8.03;;
4460;SDS011;2243;48.812;9.232;2023-07-24T02:55:14;10.67;;;6.77;;
4460;SDS011;2243;48.812;9.232;2023-07-24T02:57:45;14.47;;;8.53;;
4460;SDS011;2243;48.812;9.232;2023-07-24T03:00:16;11.70;;;7.37;;
4460;SDS011;2243;48.812;9.232;2023-07-24T03:02:47;8.70;;;6.40;;
4460;SDS011;2243;48.812;9.232;2023-07-24T03:05:19;11.23;;;7.37;;
4460;SDS011;2243;48.812;9.232;2023-07-24T03:07:50;11.30;;;7.60;;
4460;SDS011;2243;48.812;9.232;2023-07-24T03:10:22;12.90;;;7.50;;
4460;SDS011;2243;48.812;9.232;2023-07-24T03:12:54;11.53;;;7.73;;
4460;SDS011;2243;48.812;9.232;2023-07-24T03:15:25;11.23;;;7.30;;
4460;SDS011;2243;48.812;9.232;2023-07-24T03:17:56;14.80;;;7.60;;
4460;SDS011;2243;48.812;9.232;2023-07-24T03:20:27;9.70;;;7.20;;
4460;SDS011;2243;48.812;9.232;2023-07-24T03:22:58;9.23;;;6.90;;
4460;SDS011;2243;48.812;9.232;2023-07-24T03:25:29;11.43;;;7.73;;
4460;SDS011;2243;48.812;9.232;2023-07-24T03:28:01;10.13;;;7.50;;
4460;SDS011;2243;48.812;9.232;2023-07-24T03:30:33;10.73;;;6.80;;
4460;SDS011;2243;48.812;9.232;2023-07-24T03:33:04;11.03;;;6.77;;
4460;SDS011;2243;48.812;9.232;2023-07-24T03:35:36;10.73;;;7.50;;
4460;SDS011;2243;48.812;9.232;2023-07-24T03:38:09;9.97;;;6.67;;
4460;SDS011;2243;48.812;9.232;2023-07-24T03:40:40;11.80;;;7.47;;
4460;SDS011;2243;48.812;9.232;2023-07-24T03:43:11;9.47;;;7.73;;
4460;SDS011;2243;48.812;9.232;2023-07-24T03:45:41;10.57;;;7.20;;
4460;SDS011;2243;48.812;9.232;2023-07-24T03:48:14;11.47;;;8.10;;
4460;SDS011;2243;48.812;9.232;2023-07-24T03:50:45;10.07;;;7.50;;
4460;SDS011;2243;48.812;9.232;2023-07-24T03:53:16;12.80;;;7.80;;
4460;SDS011;2243;48.812;9.232;2023-07-24T03:55:46;11.33;;;7.83;;
4460;SDS011;2243;48.812;9.232;2023-07-24T03:58:17;10.10;;;6.90;;
4460;SDS011;2243;48.812;9.232;2023-07-24T04:00:49;12.70;;;7.87;;
4460;SDS011;2243;48.812;9.232;2023-07-24T04:03:20;10.13;;;6.90;;
4460;SDS011;2243;48.812;9.232;2023-07-24T04:05:51;13.50;;;7.80;;
4460;SDS011;2243;48.812;9.232;2023-07-24T04:08:21;12.70;;;8.30;;
4460;SDS011;2243;48.812;9.232;2023-07-24T04:10:52;15.30;;;8.00;;
4460;SDS011;2243;48.812;9.232;2023-07-24T04:13:26;15.00;;;8.00;;
4460;SDS011;2243;48.812;9.232;2023-07-24T04:15:57;10.73;;;7.17;;
4460;SDS011;2243;48.812;9.232;2023-07-24T04:18:29;9.57;;;6.40;;
4460;SDS011;2243;48.812;9.232;2023-07-24T04:21:00;13.50;;;8.50;;
4460;SDS011;2243;48.812;9.232;2023-07-24T04:23:31;13.80;;;7.20;;
4460;SDS011;2243;48.812;9.232;2023-07-24T04:26:02;11.97;;;7.73;;
4460;SDS011;2243;48.812;9.232;2023-07-24T04:28:33;14.87;;;8.00;;
4460;SDS011;2243;48.812;9.232;2023-07-24T04:31:04;13.80;;;8.30;;
4460;SDS011;2243;48.812;9.232;2023-07-24T04:33:35;12.20;;;7.20;;
4460;SDS011;2243;48.812;9.232;2023-07-24T04:36:06;11.90;;;7.57;;
4460;SDS011;2243;48.812;9.232;2023-07-24T04:38:37;11.17;;;6.77;;
4460;SDS011;2243;48.812;9.232;2023-07-24T04:41:08;12.17;;;7.50;;
4460;SDS011;2243;48.812;9.232;2023-07-24T04:43:39;14.20;;;8.13;;
4460;SDS011;2243;48.812;9.232;2023-07-24T04:46:10;11.03;;;7.40;;
4460;SDS011;2243;48.812;9.232;2023-07-24T04:48:41;12.57;;;7.43;;
4460;SDS011;2243;48.812;9.232;2023-07-24T04:51:12;11.20;;;7.20;;
4460;SDS011;2243;48.812;9.232;2023-07-24T04:53:42;11.30;;;7.67;;
4460;SDS011;2243;48.812;9.232;2023-07-24T04:56:13;9.60;;;7.17;;
4460;SDS011;2243;48.812;9.232;2023-07-24T04:58:44;11.60;;;7.97;;
4460;SDS011;2243;48.812;9.232;2023-07-24T05:01:15;12.37;;;8.00;;
4460;SDS011;2243;48.812;9.232;2023-07-24T05:03:46;8.90;;;6.90;;
4460;SDS011;2243;48.812;9.232;2023-07-24T05:06:17;9.83;;;6.80;;
4460;SDS011;2243;48.812;9.232;2023-07-24T05:08:48;9.10;;;6.83;;
4460;SDS011;2243;48.812;9.232;2023-07-24T05:11:19;8.70;;;6.70;;
4460;SDS011;2243;48.812;9.232;2023-07-24T05:13:50;11.73;;;7.40;;
4460;SDS011;2243;48.812;9.232;2023-07-24T05:16:21;10.07;;;7.03;;
4460;SDS011;2243;48.812;9.232;2023-07-24T05:18:52;10.07;;;6.83;;
4460;SDS011;2243;48.812;9.232;2023-07-24T05:21:23;11.60;;;7.23;;
4460;SDS011;2243;48.812;9.232;2023-07-24T05:23:54;11.00;;;7.50;;
4460;SDS011;2243;48.812;9.232;2023-07-24T05:26:25;11.80;;;7.67;;
4460;SDS011;2243;48.812;9.232;2023-07-24T05:28:56;12.83;;;8.07;;
4460;SDS011;2243;48.812;9.232;2023-07-24T05:31:27;15.30;;;8.10;;
4460;SDS011;2243;48.812;9.232;2023-07-24T05:33:58;11.77;;;7.73;;
4460;SDS011;2243;48.812;9.232;2023-07-24T05:36:29;11.70;;;8.10;;
4460;SDS011;2243;48.812;9.232;2023-07-24T05:39:01;12.17;;;7.60;;
4460;SDS011;2243;48.812;9.232;2023-07-24T05:41:32;15.10;;;8.60;;
4460;SDS011;2243;48.812;9.232;2023-07-24T05:44:03;12.10;;;7.83;;
4460;SDS011;2243;48.812;9.232;2023-07-24T05:46:34;17.73;;;8.83;;
4460;SDS011;2243;48.812;9.232;2023-07-24T05:49:05;21.40;;;9.57;;
4460;SDS011;2243;48.812;9.232;2023-07-24T05:51:36;12.63;;;8.00;;
4460;SDS011;2243;48.812;9.232;2023-07-24T05:54:07;14.00;;;7.80;;
4460;SDS011;2243;48.812;9.232;2023-07-24T05:56:38;13.83;;;7.87;;
4460;SDS011;2243;48.812;9.232;2023-07-24T05:59:10;10.87;;;8.03;;
4460;SDS011;2243;48.812;9.232;2023-07-24T06:01:41;11.63;;;7.43;;
4460;SDS011;2243;48.812;9.232;2023-07-24T06:04:12;9.73;;;7.07;;
4460;SDS011;2243;48.812;9.232;2023-07-24T06:06:43;12.07;;;7.90;;
4460;SDS011;2243;48.812;9.232;2023-07-24T06:09:14;15.27;;;7.93;;
4460;SDS011;2243;48.812;9.232;2023-07-24T06:11:45;13.07;;;7.40;;
4460;SDS011;2243;48.812;9.232;2023-07-24T06:14:16;11.40;;;7.70;;
4460;SDS011;2243;48.812;9.232;2023-07-24T06:16:47;11.83;;;7.30;;
4460;SDS011;2243;48.812;9.232;2023-07-24T06:19:18;11.20;;;6.97;;
4460;SDS011;2243;48.812;9.232;2023-07-24T06:21:49;10.97;;;7.50;;
4460;SDS011;2243;48.812;9.232;2023-07-24T06:24:20;11.70;;;7.70;;
4460;SDS011;2243;48.812;9.232;2023-07-24T06:26:51;11.00;;;6.73;;
4460;SDS011;2243;48.812;9.232;2023-07-24T06:29:22;11.83;;;7.93;;
4460;SDS011;2243;48.812;9.232;2023-07-24T06:31:53;11.43;;;7.57;;
4460;SDS011;2243;48.812;9.232;2023-07-24T06:34:24;13.13;;;7.37;;
4460;SDS011;2243;48.812;9.232;2023-07-24T06:36:55;12.60;;;7.33;;
4460;SDS011;2243;48.812;9.232;2023-07-24T06:39:42;10.40;;;8.03;;
4460;SDS011;2243;48.812;9.232;2023-07-24T06:42:13;9.53;;;7.10;;
4460;SDS011;2243;48.812;9.232;2023-07-24T06:44:44;10.00;;;7.27;;
4460;SDS011;2243;48.812;9.232;2023-07-24T06:47:15;14.07;;;7.23;;
4460;SDS011;2243;48.812;9.232;2023-07-24T06:49:46;12.00;;;8.07;;
4460;SDS011;2243;48.812;9.232;2023-07-24T06:52:17;12.63;;;7.70;;
4460;SDS011;2243;48.812;9.232;2023-07-24T06:54:48;15.47;;;8.07;;
4460;SDS011;2243;48.812;9.232;2023-07-24T06:57:19;12.37;;;8.50;;
4460;SDS011;2243;48.812;9.232;2023-07-24T06:59:50;10.87;;;7.20;;
4460;SDS011;2243;48.812;9.232;2023-07-24T07:02:24;17.60;;;8.03;;
4460;SDS011;2243;48.812;9.232;2023-07-24T07:04:55;13.13;;;8.50;;
4460;SDS011;2243;48.812;9.232;2023-07-24T07:07:26;12.27;;;8.03;;
4460;SDS011;2243;48.812;9.232;2023-07-24T07:09:57;13.23;;;7.93;;
4460;SDS011;2243;48.812;9.232;2023-07-24T07:12:28;16.73;;;8.17;;
4460;SDS011;2243;48.812;9.232;2023-07-24T07:14:59;17.47;;;9.00;;
4460;SDS011;2243;48.812;9.232;2023-07-24T07:17:30;12.23;;;7.70;;
4460;SDS011;2243;48.812;9.232;2023-07-24T07:20:01;13.10;;;7.73;;
4460;SDS011;2243;48.812;9.232;2023-07-24T07:22:33;11.83;;;7.40;;
4460;SDS011;2243;48.812;9.232;2023-07-24T07:25:04;14.40;;;8.00;;
4460;SDS011;2243;48.812;9.232;2023-07-24T07:27:35;10.37;;;7.30;;
4460;SDS011;2243;48.812;9.232;2023-07-24T07:30:06;15.17;;;8.97;;
4460;SDS011;2243;48.812;9.232;2023-07-24T07:32:38;14.13;;;8.67;;
4460;SDS011;2243;48.812;9.232;2023-07-24T07:35:09;10.83;;;7.90;;
4460;SDS011;2243;48.812;9.232;2023-07-24T07:37:40;17.23;;;8.80;;
4460;SDS011;2243;48.812;9.232;2023-07-24T07:40:11;15.77;;;8.33;;
4460;SDS011;2243;48.812;9.232;2023-07-24T07:42:42;10.63;;;7.40;;
4460;SDS011;2243;48.812;9.232;2023-07-24T07:45:15;11.90;;;7.83;;
4460;SDS011;2243;48.812;9.232;2023-07-24T07:47:46;15.90;;;8.47;;
4460;SDS011;2243;48.812;9.232;2023-07-24T07:50:17;12.10;;;8.60;;
4460;SDS011;2243;48.812;9.232;2023-07-24T07:52:51;18.60;;;8.27;;
4460;SDS011;2243;48.812;9.232;2023-07-24T07:55:23;17.27;;;8.47;;
4460;SDS011;2243;48.812;9.232;2023-07-24T07:57:54;14.10;;;9.27;;
4460;SDS011;2243;48.812;9.232;2023-07-24T08:00:25;11.60;;;7.37;;
4460;SDS011;2243;48.812;9.232;2023-07-24T08:02:55;15.03;;;7.77;;
4460;SDS011;2243;48.812;9.232;2023-07-24T08:05:27;13.50;;;8.00;;
4460;SDS011;2243;48.812;9.232;2023-07-24T08:07:58;15.30;;;7.80;;
4460;SDS011;2243;48.812;9.232;2023-07-24T08:10:29;11.40;;;8.17;;
4460;SDS011;2243;48.812;9.232;2023-07-24T08:13:00;13.17;;;10.03;;
4460;SDS011;2243;48.812;9.232;2023-07-24T08:15:33;14.10;;;10.23;;
4460;SDS011;2243;48.812;9.232;2023-07-24T08:18:08;11.13;;;7.90;;
4460;SDS011;2243;48.812;9.232;2023-07-24T08:20:39;10.57;;;7.70;;
4460;SDS011;2243;48.812;9.232;2023-07-24T08:23:10;13.47;;;7.57;;
4460;SDS011;2243;48.812;9.232;2023-07-24T08:25:50;11.10;;;7.83;;
4460;SDS011;2243;48.812;9.232;2023-07-24T08:28:25;13.47;;;7.83;;
4460;SDS011;2243;48.812;9.232;2023-07-24T08:30:59;14.10;;;8.73;;
4460;SDS011;2243;48.812;9.232;2023-07-24T08:33:36;13.97;;;9.53;;
4460;SDS011;2243;48.812;9.232;2023-07-24T08:36:07;12.77;;;7.90;;
4460;SDS011;2243;48.812;9.232;2023-07-24T08:38:39;14.07;;;8.73;;
4460;SDS011;2243;48.812;9.232;2023-07-24T08:41:12;15.60;;;9.00;;
4460;SDS011;2243;48.812;9.232;2023-07-24T08:43:44;17.90;;;9.43;;
4460;SDS011;2243;48.812;9.232;2023-07-24T08:46:15;14.53;;;8.10;;
4460;SDS011;2243;48.812;9.232;2023-07-24T08:48:48;16.47;;;8.23;;
4460;SDS011;2243;48.812;9.232;2023-07-24T08:51:19;18.70;;;9.37;;
4460;SDS011;2243;48.812;9.232;2023-07-24T08:53:52;13.40;;;8.57;;
4460;SDS011;2243;48.812;9.232;2023-07-24T08:56:23;14.40;;;8.23;;
4460;SDS011;2243;48.812;9.232;2023-07-24T08:58:55;17.23;;;9.13;;
4460;SDS011;2243;48.812;9.232;2023-07-24T09:01:26;12.07;;;7.50;;
4460;SDS011;2243;48.812;9.232;2023-07-24T09:03:57;14.67;;;9.30;;
4460;SDS011;2243;48.812;9.232;2023-07-24T09:06:28;12.63;;;8.43;;
4460;SDS011;2243;48.812;9.232;2023-07-24T09:09:00;18.20;;;8.30;;
4460;SDS011;2243;48.812;9.232;2023-07-24T09:11:32;13.17;;;8.37;;
4460;SDS011;2243;48.812;9.232;2023-07-24T09:14:03;11.13;;;8.27;;
4460;SDS011;2243;48.812;9.232;2023-07-24T09:16:42;10.47;;;7.73;;
4460;SDS011;2243;48.812;9.232;2023-07-24T09:19:17;13.57;;;8.17;;
4460;SDS011;2243;48.812;9.232;2023-07-24T09:21:56;14.23;;;8.17;;
4460;SDS011;2243;48.812;9.232;2023-07-24T09:24:54;11.50;;;6.93;;
4460;SDS011;2243;48.812;9.232;2023-07-24T09:27:28;9.77;;;7.17;;
4460;SDS011;2243;48.812;9.232;2023-07-24T09:30:02;19.50;;;9.13;;
4460;SDS011;2243;48.812;9.232;2023-07-24T09:32:51;11.57;;;8.00;;
4460;SDS011;2243;48.812;9.232;2023-07-24T09:35:23;11.20;;;7.70;;
4460;SDS011;2243;48.812;9.232;2023-07-24T09:38:07;10.83;;;7.03;;
4460;SDS011;2243;48.812;9.232;2023-07-24T09:40:42;9.00;;;6.43;;
4460;SDS011;2243;48.812;9.232;2023-07-24T09:43:17;7.40;;;6.20;;
4460;SDS011;2243;48.812;9.232;2023-07-24T09:46:08;6.47;;;5.57;;
4460;SDS011;2243;48.812;9.232;2023-07-24T09:48:41;10.73;;;7.00;;
4460;SDS011;2243;48.812;9.232;2023-07-24T09:51:31;6.77;;;5.50;;
4460;SDS011;2243;48.812;9.232;2023-07-24T09:54:09;10.13;;;6.67;;
4460;SDS011;2243;48.812;9.232;2023-07-24T09:56:54;8.23;;;6.10;;
4460;SDS011;2243;48.812;9.232;2023-07-24T09:59:46;9.17;;;6.70;;
4460;SDS011;2243;48.812;9.232;2023-07-24T10:02:18;6.40;;;5.53;;
4460;SDS011;2243;48.812;9.232;2023-07-24T10:04:50;8.30;;;6.40;;
4460;SDS011;2243;48.812;9.232;2023-07-24T10:07:22;7.53;;;5.90;;
4460;SDS011;2243;48.812;9.232;2023-07-24T10:09:54;7.33;;;5.67;;
4460;SDS011;2243;48.812;9.232;2023-07-24T10:12:25;11.00;;;6.77;;
4460;SDS011;2243;48.812;9.232;2023-07-24T10:15:01;8.50;;;6.20;;
4460;SDS011;2243;48.812;9.232;2023-07-24T10:20:09;7.10;;;6.40;;
4460;SDS011;2243;48.812;9.232;2023-07-24T10:22:42;8.63;;;5.93;;
4460;SDS011;2243;48.812;9.232;2023-07-24T10:25:13;6.07;;;5.47;;
4460;SDS011;2243;48.812;9.232;2023-07-24T10:27:45;7.73;;;6.27;;
4460;SDS011;2243;48.812;9.232;2023-07-24T10:30:17;7.87;;;6.10;;
4460;SDS011;2243;48.812;9.232;2023-07-24T10:33:08;7.80;;;5.90;;
4460;SDS011;2243;48.812;9.232;2023-07-24T10:35:52;6.87;;;5.80;;
4460;SDS011;2243;48.812;9.232;2023-07-24T10:38:32;10.60;;;7.10;;
4460;SDS011;2243;48.812;9.232;2023-07-24T10:41:10;9.73;;;6.47;;
4460;SDS011;2243;48.812;9.232;2023-07-24T10:43:45;7.80;;;6.10;;
4460;SDS011;2243;48.812;9.232;2023-07-24T10:46:21;7.20;;;5.90;;
4460;SDS011;2243;48.812;9.232;2023-07-24T10:48:53;7.30;;;6.60;;
4460;SDS011;2243;48.812;9.232;2023-07-24T10:51:24;7.90;;;6.43;;
4460;SDS011;2243;48.812;9.232;2023-07-24T10:53:55;8.23;;;6.17;;
4460;SDS011;2243;48.812;9.232;2023-07-24T10:56:26;8.50;;;6.77;;
4460;SDS011;2243;48.812;9.232;2023-07-24T10:59:01;8.50;;;5.80;;
4460;SDS011;2243;48.812;9.232;2023-07-24T11:01:34;8.20;;;6.27;;
4460;SDS011;2243;48.812;9.232;2023-07-24T11:04:06;8.67;;;6.80;;
4460;SDS011;2243;48.812;9.232;2023-07-24T11:06:37;9.03;;;6.47;;
4460;SDS011;2243;48.812;9.232;2023-07-24T11:09:08;10.03;;;6.53;;
4460;SDS011;2243;48.812;9.232;2023-07-24T11:11:39;11.13;;;6.87;;
4460;SDS011;2243;48.812;9.232;2023-07-24T11:14:13;8.97;;;6.90;;
4460;SDS011;2243;48.812;9.232;2023-07-24T11:16:48;9.30;;;6.13;;
4460;SDS011;2243;48.812;9.232;2023-07-24T11:19:24;10.93;;;6.80;;
4460;SDS011;2243;48.812;9.232;2023-07-24T11:21:55;8.30;;;7.00;;
4460;SDS011;2243;48.812;9.232;2023-07-24T11:24:26;9.10;;;6.90;;
4460;SDS011;2243;48.812;9.232;2023-07-24T11:26:57;9.17;;;6.33;;
4460;SDS011;2243;48.812;9.232;2023-07-24T11:29:28;9.50;;;7.67;;
4460;SDS011;2243;48.812;9.232;2023-07-24T11:32:00;8.67;;;6.87;;
4460;SDS011;2243;48.812;9.232;2023-07-24T11:34:34;11.50;;;7.50;;
4460;SDS011;2243;48.812;9.232;2023-07-24T11:37:06;11.37;;;7.97;;
4460;SDS011;2243;48.812;9.232;2023-07-24T11:39:37;9.03;;;7.73;;
4460;SDS011;2243;48.812;9.232;2023-07-24T11:42:08;12.27;;;7.03;;
4460;SDS011;2243;48.812;9.232;2023-07-24T11:44:39;12.77;;;7.40;;
4460;SDS011;2243;48.812;9.232;2023-07-24T11:47:10;9.50;;;6.73;;
4460;SDS011;2243;48.812;9.232;2023-07-24T11:49:41;11.00;;;7.03;;
4460;SDS011;2243;48.812;9.232;2023-07-24T11:52:18;13.43;;;7.43;;
4460;SDS011;2243;48.812;9.232;2023-07-24T11:54:55;8.50;;;6.60;;
4460;SDS011;2243;48.812;9.232;2023-07-24T11:57:31;12.73;;;6.17;;
4460;SDS011;2243;48.812;9.232;2023-07-24T12:00:02;9.90;;;7.47;;
4460;SDS011;2243;48.812;9.232;2023-07-24T12:02:36;9.93;;;6.83;;
4460;SDS011;2243;48.812;9.232;2023-07-24T12:05:07;9.73;;;6.17;;
4460;SDS011;2243;48.812;9.232;2023-07-24T12:07:42;9.77;;;7.03;;
4460;SDS011;2243;48.812;9.232;2023-07-24T12:10:24;6.97;;;5.27;;
4460;SDS011;2243;48.812;9.232;2023-07-24T12:12:59;9.30;;;6.13;;
4460;SDS011;2243;48.812;9.232;2023-07-24T12:15:31;9.70;;;6.33;;
4460;SDS011;2243;48.812;9.232;2023-07-24T12:18:04;9.30;;;6.50;;
4460;SDS011;2243;48.812;9.232;2023-07-24T12:20:36;8.83;;;6.60;;
4460;SDS011;2243;48.812;9.232;2023-07-24T12:23:07;8.40;;;6.50;;
4460;SDS011;2243;48.812;9.232;2023-07-24T12:25:38;20.93;;;11.40;;
4460;SDS011;2243;48.812;9.232;2023-07-24T12:28:09;7.90;;;6.67;;
4460;SDS011;2243;48.812;9.232;2023-07-24T12:30:40;7.80;;;7.00;;
4460;SDS011;2243;48.812;9.232;2023-07-24T12:33:11;9.00;;;7.03;;
4460;SDS011;2243;48.812;9.232;2023-07-24T12:35:42;6.83;;;5.97;;
4460;SDS011;2243;48.812;9.232;2023-07-24T12:38:13;6.90;;;5.43;;
4460;SDS011;2243;48.812;9.232;2023-07-24T12:40:44;7.33;;;5.50;;
4460;SDS011;2243;48.812;9.232;2023-07-24T12:43:15;6.80;;;6.10;;
4460;SDS011;2243;48.812;9.232;2023-07-24T12:45:46;7.47;;;6.23;;
4460;SDS011;2243;48.812;9.232;2023-07-24T12:48:17;6.30;;;5.67;;
4460;SDS011;2243;48.812;9.232;2023-07-24T12:50:48;7.83;;;6.30;;
4460;SDS011;2243;48.812;9.232;2023-07-24T12:53:19;9.90;;;5.67;;
4460;SDS011;2243;48.812;9.232;2023-07-24T12:55:59;7.03;;;6.07;;
4460;SDS011;2243;48.812;9.232;2023-07-24T12:58:30;10.80;;;7.10;;
4460;SDS011;2243;48.812;9.232;2023-07-24T13:01:01;10.73;;;6.50;;
4460;SDS011;2243;48.812;9.232;2023-07-24T13:03:32;8.97;;;6.37;;
4460;SDS011;2243;48.812;9.232;2023-07-24T13:06:03;7.17;;;6.27;;
4460;SDS011;2243;48.812;9.232;2023-07-24T13:08:34;7.00;;;6.30;;
4460;SDS011;2243;48.812;9.232;2023-07-24T13:11:05;6.87;;;6.17;;
4460;SDS011;2243;48.812;9.232;2023-07-24T13:13:36;8.13;;;6.17;;
4460;SDS011;2243;48.812;9.232;2023-07-24T13:16:10;7.07;;;6.20;;
4460;SDS011;2243;48.812;9.232;2023-07-24T13:18:41;10.00;;;7.10;;
4460;SDS011;2243;48.812;9.232;2023-07-24T13:21:13;6.10;;;5.50;;
4460;SDS011;2243;48.812;9.232;2023-07-24T13:23:46;7.93;;;5.83;;
4460;SDS011;2243;48.812;9.232;2023-07-24T13:26:23;8.07;;;6.33;;
4460;SDS011;2243;48.812;9.232;2023-07-24T13:28:54;7.23;;;5.67;;
4460;SDS011;2243;48.812;9.232;2023-07-24T13:31:25;6.77;;;5.60;;
4460;SDS011;2243;48.812;9.232;2023-07-24T13:33:59;10.90;;;5.90;;
4460;SDS011;2243;48.812;9.232;2023-07-24T13:36:30;7.83;;;5.80;;
4460;SDS011;2243;48.812;9.232;2023-07-24T13:39:02;6.93;;;5.80;;
4460;SDS011;2243;48.812;9.232;2023-07-24T13:41:33;10.73;;;6.70;;
4460;SDS011;2243;48.812;9.232;2023-07-24T13:44:22;9.97;;;5.70;;
4460;SDS011;2243;48.812;9.232;2023-07-24T13:46:53;9.63;;;6.20;;
4460;SDS011;2243;48.812;9.232;2023-07-24T13:49:25;6.97;;;5.50;;
4460;SDS011;2243;48.812;9.232;2023-07-24T13:51:56;5.73;;;5.07;;
4460;SDS011;2243;48.812;9.232;2023-07-24T13:54:27;9.23;;;6.20;;
4460;SDS011;2243;48.812;9.232;2023-07-24T13:57:01;8.90;;;6.17;;
4460;SDS011;2243;48.812;9.232;2023-07-24T13:59:37;7.90;;;5.33;;
4460;SDS011;2243;48.812;9.232;2023-07-24T14:02:12;9.20;;;6.00;;
4460;SDS011;2243;48.812;9.232;2023-07-24T14:04:43;6.77;;;5.60;;
4460;SDS011;2243;48.812;9.232;2023-07-24T14:07:25;6.73;;;5.73;;
4460;SDS011;2243;48.812;9.232;2023-07-24T14:09:58;6.10;;;5.00;;
4460;SDS011;2243;48.812;9.232;2023-07-24T14:12:29;5.87;;;5.23;;
4460;SDS011;2243;48.812;9.232;2023-07-24T14:14:59;5.47;;;4.97;;
4460;SDS011;2243;48.812;9.232;2023-07-24T14:17:31;5.00;;;4.60;;
4460;SDS011;2243;48.812;9.232;2023-07-24T14:20:03;6.80;;;4.33;;
4460;SDS011;2243;48.812;9.232;2023-07-24T14:22:35;6.67;;;5.03;;
4460;SDS011;2243;48.812;9.232;2023-07-24T14:25:09;5.93;;;5.13;;
4460;SDS011;2243;48.812;9.232;2023-07-24T14:27:40;5.23;;;3.90;;
4460;SDS011;2243;48.812;9.232;2023-07-24T14:30:11;6.23;;;4.47;;
4460;SDS011;2243;48.812;9.232;2023-07-24T14:32:43;4.80;;;4.27;;
4460;SDS011;2243;48.812;9.232;2023-07-24T14:35:14;5.57;;;4.30;;
4460;SDS011;2243;48.812;9.232;2023-07-24T14:37:46;7.93;;;5.10;;
4460;SDS011;2243;48.812;9.232;2023-07-24T14:40:16;6.80;;;4.80;;
4460;SDS011;2243;48.812;9.232;2023-07-24T14:42:48;5.00;;;4.50;;
4460;SDS011;2243;48.812;9.232;2023-07-24T14:45:19;4.80;;;4.30;;
4460;SDS011;2243;48.812;9.232;2023-07-24T14:47:50;4.20;;;3.80;;
4460;SDS011;2243;48.812;9.232;2023-07-24T14:50:22;5.50;;;4.33;;
4460;SDS011;2243;48.812;9.232;2023-07-24T14:52:55;6.07;;;3.70;;
4460;SDS011;2243;48.812;9.232;2023-07-24T14:55:26;5.70;;;4.10;;
4460;SDS011;2243;48.812;9.232;2023-07-24T14:58:00;5.17;;;4.30;;
4460;SDS011;2243;48.812;9.232;2023-07-24T15:00:32;4.40;;;4.00;;
4460;SDS011;2243;48.812;9.232;2023-07-24T15:03:03;4.57;;;4.17;;
4460;SDS011;2243;48.812;9.232;2023-07-24T15:05:34;4.83;;;4.30;;
4460;SDS011;2243;48.812;9.232;2023-07-24T15:08:06;4.70;;;4.23;;
4460;SDS011;2243;48.812;9.232;2023-07-24T15:10:36;4.53;;;3.70;;
4460;SDS011;2243;48.812;9.232;2023-07-24T15:13:09;6.37;;;3.83;;
4460;SDS011;2243;48.812;9.232;2023-07-24T15:15:40;5.40;;;3.87;;
4460;SDS011;2243;48.812;9.232;2023-07-24T15:18:11;3.83;;;3.50;;
4460;SDS011;2243;48.812;9.232;2023-07-24T15:20:42;3.80;;;3.50;;
4460;SDS011;2243;48.812;9.232;2023-07-24T15:23:13;4.90;;;3.33;;
4460;SDS011;2243;48.812;9.232;2023-07-24T15:25:44;5.23;;;3.80;;
4460;SDS011;2243;48.812;9.232;2023-07-24T15:28:15;4.53;;;4.00;;
4460;SDS011;2243;48.812;9.232;2023-07-24T15:30:49;4.10;;;3.70;;
4460;SDS011;2243;48.812;9.232;2023-07-24T15:33:21;5.50;;;5.00;;
4460;SDS011;2243;48.812;9.232;2023-07-24T15:35:52;4.73;;;4.20;;
4460;SDS011;2243;48.812;9.232;2023-07-24T15:38:25;4.10;;;3.70;;
4460;SDS011;2243;48.812;9.232;2023-07-24T15:40:56;3.97;;;3.33;;
4460;SDS011;2243;48.812;9.232;2023-07-24T15:43:30;4.27;;;3.90;;
4460;SDS011;2243;48.812;9.232;2023-07-24T15:46:02;4.10;;;3.50;;